Time;durP1;ratioP1;P1;durP2;ratioP2;P2;SDS_P1;SDS_P2;PMS_P1;PMS_P2;Temp;Humidity;BMP_temperature;BMP_pressure;BME280_temperature;BME280_humidity;BME280_pressure;Samples;Min_cycle;Max_cycle;Signal;HPM_P1;HPM_P2
2022/07/29 00:01:43;;;;;;;9.60;1.20;;;;;;;14.34;54.49;100579.90;105954;1271;24241;-63
2022/07/29 00:04:16;;;;;;;5.10;1.20;;;;;;;14.28;54.77;100572.29;106101;1271;22658;-62
2022/07/29 00:06:47;;;;;;;9.50;1.20;;;;;;;14.25;54.72;100577.81;106052;1273;22531;-63
2022/07/29 00:09:19;;;;;;;8.60;1.10;;;;;;;14.23;54.97;100572.98;106001;1271;22564;-63
2022/07/29 00:11:50;;;;;;;5.20;1.00;;;;;;;14.23;55.01;100579.11;105957;1272;25351;-62
2022/07/29 00:14:22;;;;;;;4.10;0.90;;;;;;;14.20;55.03;100576.57;105885;1273;23071;-62
2022/07/29 00:16:54;;;;;;;7.50;1.20;;;;;;;14.15;55.12;100576.38;105791;1273;22563;-63
2022/07/29 00:19:25;;;;;;;4.90;0.90;;;;;;;14.11;55.25;100579.76;106052;1272;23067;-63
2022/07/29 00:21:57;;;;;;;5.50;1.20;;;;;;;14.07;55.58;100581.05;105894;1272;22610;-62
2022/07/29 00:24:28;;;;;;;7.20;1.50;;;;;;;14.04;55.55;100579.48;106218;1271;24434;-63
2022/07/29 00:27:00;;;;;;;6.40;1.00;;;;;;;14.01;55.62;100580.57;105834;1271;22551;-62
2022/07/29 00:29:32;;;;;;;5.90;1.10;;;;;;;13.99;55.78;100583.60;106052;1273;24322;-63
2022/07/29 00:32:04;;;;;;;5.20;1.00;;;;;;;13.96;55.94;100585.11;106048;1272;25209;-62
2022/07/29 00:37:24;;;;;;;6.20;1.10;;;;;;;13.93;56.20;100576.92;105745;1272;22545;-63
2022/07/29 00:39:56;;;;;;;4.60;1.00;;;;;;;13.92;56.42;100572.36;105824;1273;22544;-64
2022/07/29 00:42:28;;;;;;;7.30;1.10;;;;;;;13.90;56.48;100572.59;105934;1271;25212;-62
2022/07/29 00:45:00;;;;;;;6.20;1.30;;;;;;;13.86;56.65;100568.61;105836;1271;24231;-63
2022/07/29 00:47:32;;;;;;;5.20;1.00;;;;;;;13.84;56.57;100571.41;105816;1273;22760;-62
2022/07/29 00:50:04;;;;;;;3.60;0.90;;;;;;;13.82;56.94;100563.23;106041;1272;22533;-62
2022/07/29 00:52:37;;;;;;;5.50;1.00;;;;;;;13.76;56.90;100563.21;105813;1271;22580;-64
2022/07/29 00:55:11;;;;;;;4.50;1.10;;;;;;;13.72;57.05;100563.17;105725;1273;23123;-64
2022/07/29 00:57:43;;;;;;;5.30;0.90;;;;;;;13.67;57.36;100560.56;105937;1273;22551;-62
2022/07/29 01:00:19;;;;;;;5.40;0.90;;;;;;;13.62;57.40;100558.25;106040;1271;25651;-62
2022/07/29 01:02:51;;;;;;;5.60;1.20;;;;;;;13.57;57.61;100560.70;105932;1273;23553;-62
2022/07/29 01:05:24;;;;;;;5.00;1.20;;;;;;;13.56;57.68;100561.34;106077;1273;24326;-62
2022/07/29 01:07:58;;;;;;;5.40;1.10;;;;;;;13.51;57.72;100561.95;101979;1273;5587591;-64
2022/07/29 01:10:30;;;;;;;7.00;1.40;;;;;;;13.48;58.10;100566.30;106180;1273;26897;-64
2022/07/29 01:13:03;;;;;;;8.30;1.10;;;;;;;13.45;57.98;100571.05;106266;1272;22601;-63
2022/07/29 01:15:43;;;;;;;5.50;1.00;;;;;;;13.42;58.22;100570.80;106042;1273;22569;-63
2022/07/29 01:18:21;;;;;;;5.80;1.00;;;;;;;13.40;58.20;100567.36;105743;1271;23442;-64
2022/07/29 01:21:22;;;;;;;7.00;1.00;;;;;;;13.36;58.30;100566.85;105950;1271;22605;-63
2022/07/29 01:24:31;;;;;;;5.90;1.10;;;;;;;13.31;58.47;100567.96;105970;1273;22550;-62
2022/07/29 01:27:17;;;;;;;7.00;1.00;;;;;;;13.26;58.75;100568.91;105506;1275;24272;-63
2022/07/29 01:29:55;;;;;;;5.80;1.40;;;;;;;13.23;58.69;100565.66;105661;1276;25389;-63
2022/07/29 01:32:30;;;;;;;9.90;1.20;;;;;;;13.20;58.89;100556.66;105962;1276;24284;-63
2022/07/29 01:35:09;;;;;;;5.60;1.00;;;;;;;13.20;59.08;100553.73;105638;1276;22608;-63
2022/07/29 01:37:45;;;;;;;5.80;1.00;;;;;;;13.17;59.15;100552.27;105581;1276;24440;-62
2022/07/29 01:40:28;;;;;;;6.00;1.60;;;;;;;13.14;59.44;100556.33;105607;1276;22759;-62
2022/07/29 01:43:04;;;;;;;6.00;0.90;;;;;;;13.11;59.25;100556.74;105855;1276;26308;-63
2022/07/29 01:45:41;;;;;;;8.70;1.20;;;;;;;13.09;59.47;100555.52;105715;1276;24262;-62
2022/07/29 01:48:16;;;;;;;4.30;1.00;;;;;;;13.08;59.59;100555.02;105762;1276;23950;-62
2022/07/29 01:50:51;;;;;;;8.30;1.10;;;;;;;13.07;59.81;100558.00;105707;1276;22538;-62
2022/07/29 01:53:31;;;;;;;6.90;1.10;;;;;;;13.03;59.94;100551.17;105574;1276;22529;-63
2022/07/29 01:56:04;;;;;;;7.60;1.20;;;;;;;12.99;60.06;100547.77;105558;1276;22660;-63
2022/07/29 01:58:40;;;;;;;4.30;0.90;;;;;;;12.97;59.93;100544.13;105564;1276;22565;-63
2022/07/29 02:01:13;;;;;;;6.60;0.90;;;;;;;12.98;60.08;100545.46;105718;1276;22557;-62
2022/07/29 02:03:47;;;;;;;7.70;1.10;;;;;;;12.97;60.37;100538.42;105764;1274;25255;-63
2022/07/29 02:06:23;;;;;;;6.40;1.10;;;;;;;12.96;60.33;100536.07;105777;1273;24626;-62
2022/07/29 02:08:57;;;;;;;7.60;1.10;;;;;;;12.95;60.40;100532.80;105711;1273;22528;-62
2022/07/29 02:11:30;;;;;;;6.80;1.30;;;;;;;12.92;60.59;100532.65;106096;1271;22653;-62
2022/07/29 02:14:02;;;;;;;5.10;0.90;;;;;;;12.89;60.80;100535.00;106039;1272;24301;-63
2022/07/29 02:16:37;;;;;;;8.50;1.30;;;;;;;12.89;60.89;100540.29;105689;1271;23459;-62
2022/07/29 02:19:11;;;;;;;6.20;1.30;;;;;;;12.86;61.13;100538.05;105806;1271;22533;-63
2022/07/29 02:21:44;;;;;;;5.50;1.00;;;;;;;12.82;61.25;100536.77;106092;1273;22556;-61
2022/07/29 02:24:17;;;;;;;8.10;1.30;;;;;;;12.80;61.24;100535.92;106007;1271;24292;-63
2022/07/29 02:26:51;;;;;;;7.90;1.20;;;;;;;12.77;61.39;100529.83;105905;1273;25263;-65
2022/07/29 02:29:26;;;;;;;9.30;1.20;;;;;;;12.77;61.52;100527.63;105981;1273;23167;-62
2022/07/29 02:32:02;;;;;;;6.60;1.50;;;;;;;12.75;61.57;100532.70;105946;1271;22624;-62
2022/07/29 02:34:34;;;;;;;7.60;1.60;;;;;;;12.70;61.89;100534.31;105728;1273;24235;-63
2022/07/29 02:37:06;;;;;;;9.40;1.20;;;;;;;12.66;61.83;100529.46;105867;1271;23235;-63
2022/07/29 02:39:39;;;;;;;8.60;1.20;;;;;;;12.62;62.01;100535.20;105904;1273;22534;-63
2022/07/29 02:42:14;;;;;;;7.10;1.40;;;;;;;12.59;61.97;100537.30;105748;1271;25253;-62
2022/07/29 02:44:46;;;;;;;7.70;1.50;;;;;;;12.57;62.33;100532.47;105778;1272;22547;-62
2022/07/29 02:47:24;;;;;;;5.50;1.30;;;;;;;12.54;62.12;100528.36;105935;1273;22862;-63
2022/07/29 02:50:03;;;;;;;5.70;1.00;;;;;;;12.51;62.38;100531.58;105936;1273;22547;-63
2022/07/29 02:52:40;;;;;;;6.00;1.30;;;;;;;12.48;62.41;100533.76;105782;1271;22526;-62
2022/07/29 02:55:19;;;;;;;5.90;1.10;;;;;;;12.43;62.63;100533.53;105771;1271;22563;-61
2022/07/29 02:57:56;;;;;;;6.70;1.50;;;;;;;12.40;62.73;100534.77;105974;1273;22647;-63
2022/07/29 03:00:31;;;;;;;5.60;1.00;;;;;;;12.37;62.87;100529.16;106198;1271;22681;-62
2022/07/29 03:03:05;;;;;;;7.70;1.40;;;;;;;12.35;62.98;100529.23;105785;1273;22670;-62
2022/07/29 03:05:38;;;;;;;11.20;1.50;;;;;;;12.32;62.97;100527.20;105864;1272;22861;-63
2022/07/29 03:08:12;;;;;;;4.90;1.20;;;;;;;12.31;63.27;100535.61;105793;1271;25401;-62
2022/07/29 03:10:47;;;;;;;7.30;1.20;;;;;;;12.28;63.07;100533.79;105911;1272;22551;-62
2022/07/29 03:13:19;;;;;;;6.60;1.60;;;;;;;12.25;63.30;100535.05;105859;1273;22538;-62
2022/07/29 03:15:52;;;;;;;9.00;1.30;;;;;;;12.25;63.34;100531.30;106107;1273;25266;-63
2022/07/29 03:18:26;;;;;;;7.00;1.20;;;;;;;12.26;63.57;100530.70;105773;1272;22554;-62
2022/07/29 03:20:58;;;;;;;5.50;1.30;;;;;;;12.22;63.87;100534.25;105748;1273;24273;-64
2022/07/29 03:23:29;;;;;;;9.20;1.30;;;;;;;12.17;63.91;100537.23;105782;1271;24388;-62
2022/07/29 03:26:01;;;;;;;11.70;1.60;;;;;;;12.15;64.15;100540.20;105872;1271;22597;-62
2022/07/29 03:28:32;;;;;;;12.70;1.50;;;;;;;12.15;64.07;100535.81;105954;1273;24762;-62
2022/07/29 03:31:03;;;;;;;6.30;1.20;;;;;;;12.15;64.21;100538.96;106006;1273;22547;-63
2022/07/29 03:33:35;;;;;;;8.60;1.50;;;;;;;12.13;64.30;100538.02;105824;1273;24429;-63
2022/07/29 03:36:06;;;;;;;6.50;1.30;;;;;;;12.13;64.44;100541.34;105804;1273;24435;-63
2022/07/29 03:38:41;;;;;;;8.30;1.40;;;;;;;12.15;64.64;100539.80;105846;1273;22524;-63
2022/07/29 03:41:15;;;;;;;7.80;1.10;;;;;;;12.16;64.73;100541.54;106086;1273;22529;-62
2022/07/29 03:43:48;;;;;;;7.50;1.40;;;;;;;12.14;65.02;100539.96;106046;1273;22527;-62
2022/07/29 03:46:21;;;;;;;12.10;1.90;;;;;;;12.16;64.88;100541.73;105939;1273;22987;-63
2022/07/29 03:48:59;;;;;;;5.60;1.60;;;;;;;12.18;65.20;100544.67;105836;1273;22634;-63
2022/07/29 03:51:31;;;;;;;10.40;1.60;;;;;;;12.21;65.16;100544.41;106039;1271;22620;-63
2022/07/29 03:54:02;;;;;;;10.20;1.60;;;;;;;12.21;65.37;100547.27;105893;1271;26472;-63
2022/07/29 03:56:38;;;;;;;7.10;1.30;;;;;;;12.19;65.60;100548.30;106127;1271;25399;-62
2022/07/29 03:59:11;;;;;;;12.00;1.40;;;;;;;12.20;65.76;100549.13;105708;1271;22526;-61
2022/07/29 04:01:45;;;;;;;5.10;1.40;;;;;;;12.24;65.77;100552.05;105854;1271;22544;-62
2022/07/29 04:04:17;;;;;;;8.20;1.50;;;;;;;12.30;65.84;100552.30;106067;1271;24256;-62
2022/07/29 04:06:49;;;;;;;8.10;1.70;;;;;;;12.36;65.90;100553.98;105848;1273;24382;-63
2022/07/29 04:09:20;;;;;;;10.30;1.20;;;;;;;12.40;65.87;100558.73;105892;1273;22551;-63
2022/07/29 04:11:52;;;;;;;10.20;1.60;;;;;;;12.45;66.05;100554.95;105828;1273;22616;-62
2022/07/29 04:14:24;;;;;;;5.50;1.30;;;;;;;12.50;66.15;100554.72;105848;1273;22554;-62
2022/07/29 04:16:56;;;;;;;10.10;1.60;;;;;;;12.57;66.24;100554.21;105942;1271;22595;-62
2022/07/29 04:19:27;;;;;;;8.50;1.50;;;;;;;12.64;66.27;100556.22;105790;1271;22553;-62
2022/07/29 04:22:00;;;;;;;8.00;1.30;;;;;;;12.72;66.39;100559.45;105807;1273;22685;-61
2022/07/29 04:24:31;;;;;;;7.20;1.20;;;;;;;12.79;66.37;100551.66;105932;1273;22609;-63
2022/07/29 04:27:03;;;;;;;5.50;1.30;;;;;;;12.86;66.12;100549.11;105920;1273;23947;-62
2022/07/29 04:29:35;;;;;;;8.60;1.10;;;;;;;12.94;66.24;100548.47;105974;1273;24311;-62
2022/07/29 04:32:08;;;;;;;12.10;1.50;;;;;;;13.02;66.38;100550.73;105867;1271;22701;-65
2022/07/29 04:34:40;;;;;;;10.70;1.40;;;;;;;13.12;66.24;100546.85;105993;1271;25261;-62
2022/07/29 04:37:12;;;;;;;5.50;1.20;;;;;;;13.22;66.31;100545.92;105815;1271;24419;-63
2022/07/29 04:39:44;;;;;;;7.90;1.40;;;;;;;13.33;66.34;100546.47;105921;1271;25389;-63
2022/07/29 04:42:16;;;;;;;8.70;1.60;;;;;;;13.45;66.27;100541.01;106005;1272;25319;-62
2022/07/29 04:44:48;;;;;;;6.60;1.30;;;;;;;13.57;66.30;100546.72;105701;1273;24007;-64
2022/07/29 04:47:19;;;;;;;9.70;1.70;;;;;;;13.69;66.25;100552.31;105898;1273;24287;-63
2022/07/29 04:49:51;;;;;;;14.30;2.10;;;;;;;13.82;66.21;100555.36;106107;1273;24247;-63
2022/07/29 04:52:23;;;;;;;9.70;1.70;;;;;;;13.96;66.02;100549.59;105777;1272;24314;-63
2022/07/29 04:54:54;;;;;;;11.90;2.10;;;;;;;14.09;66.12;100547.17;105841;1273;23013;-62
2022/07/29 04:57:26;;;;;;;10.30;1.50;;;;;;;14.26;66.03;100546.21;105815;1271;22702;-63
2022/07/29 04:59:58;;;;;;;10.70;1.40;;;;;;;14.42;66.15;100545.30;106021;1272;24351;-64
2022/07/29 05:02:30;;;;;;;8.50;1.10;;;;;;;14.55;65.80;100545.55;105863;1271;25493;-62
2022/07/29 05:05:01;;;;;;;9.60;1.30;;;;;;;14.71;65.59;100547.05;105742;1271;24236;-61
2022/07/29 05:07:32;;;;;;;7.10;1.20;;;;;;;14.89;65.50;100539.71;105710;1271;22547;-64
2022/07/29 05:10:05;;;;;;;5.60;1.30;;;;;;;15.07;65.33;100534.96;105986;1274;22641;-62
2022/07/29 05:12:36;;;;;;;10.00;1.40;;;;;;;15.25;64.92;100537.92;105715;1273;25326;-62
2022/07/29 05:15:10;;;;;;;5.50;1.10;;;;;;;15.40;64.92;100538.52;105765;1273;22716;-62
2022/07/29 05:17:41;;;;;;;8.10;1.30;;;;;;;15.55;64.54;100539.96;105754;1273;22803;-62
2022/07/29 05:20:13;;;;;;;8.30;1.10;;;;;;;15.68;64.45;100535.96;107257;1272;24560;-62
2022/07/29 05:22:45;;;;;;;9.10;1.20;;;;;;;15.85;63.95;100538.21;105695;1273;22691;-63
2022/07/29 05:25:16;;;;;;;7.30;1.10;;;;;;;16.03;63.86;100538.41;105815;1271;25309;-63
2022/07/29 05:27:49;;;;;;;6.60;1.00;;;;;;;16.21;63.88;100540.63;105978;1274;24238;-63
2022/07/29 05:30:20;;;;;;;8.70;1.10;;;;;;;16.36;63.55;100539.30;106191;1271;24373;-62
2022/07/29 05:32:52;;;;;;;7.30;1.10;;;;;;;16.46;63.56;100541.36;105838;1273;22703;-63
2022/07/29 05:35:24;;;;;;;6.80;1.10;;;;;;;16.56;63.32;100541.38;105762;1272;22535;-63
2022/07/29 05:37:56;;;;;;;5.30;1.30;;;;;;;16.66;63.12;100541.07;105768;1274;24318;-63
2022/07/29 05:40:27;;;;;;;8.30;1.10;;;;;;;16.73;62.98;100541.21;106005;1273;25463;-64
2022/07/29 05:42:59;;;;;;;5.00;1.00;;;;;;;16.81;62.75;100539.67;105744;1273;22685;-62
2022/07/29 05:45:31;;;;;;;8.60;1.40;;;;;;;16.88;62.63;100541.34;105951;1273;22634;-63
2022/07/29 05:48:02;;;;;;;3.60;0.80;;;;;;;16.94;62.33;100538.45;105783;1273;22604;-63
2022/07/29 05:50:34;;;;;;;7.40;1.00;;;;;;;17.02;62.30;100535.88;106165;1273;22694;-63
2022/07/29 05:53:05;;;;;;;5.10;1.00;;;;;;;17.12;62.41;100536.61;106016;1272;24877;-64
2022/07/29 05:55:37;;;;;;;5.20;0.90;;;;;;;17.23;62.11;100537.86;106128;1273;25496;-63
2022/07/29 05:58:09;;;;;;;7.50;1.00;;;;;;;17.34;61.79;100535.73;105929;1272;22611;-63
2022/07/29 06:00:41;;;;;;;7.70;1.10;;;;;;;17.42;61.53;100531.58;105934;1274;22554;-63
2022/07/29 06:03:12;;;;;;;3.40;0.90;;;;;;;17.51;61.11;100537.27;105965;1271;24402;-62
2022/07/29 06:05:44;;;;;;;5.40;0.90;;;;;;;17.60;60.87;100543.44;105837;1273;25330;-65
2022/07/29 06:08:16;;;;;;;9.50;1.00;;;;;;;17.71;60.88;100541.60;105954;1274;24441;-62
2022/07/29 06:10:48;;;;;;;6.00;0.90;;;;;;;17.80;60.38;100539.64;105932;1273;22557;-62
2022/07/29 06:13:20;;;;;;;4.90;0.80;;;;;;;17.89;60.11;100536.61;106014;1273;22569;-64
2022/07/29 06:15:52;;;;;;;5.70;0.80;;;;;;;17.97;59.82;100536.71;105959;1274;22653;-62
2022/07/29 06:18:26;;;;;;;9.10;1.10;;;;;;;18.05;59.56;100537.39;105954;1274;24382;-63
2022/07/29 06:20:58;;;;;;;4.10;0.80;;;;;;;18.13;59.44;100536.55;105718;1274;22530;-63
2022/07/29 06:23:30;;;;;;;7.00;0.80;;;;;;;18.22;59.29;100530.98;105756;1274;22556;-63
2022/07/29 06:26:01;;;;;;;6.10;0.90;;;;;;;18.33;58.98;100529.25;105592;1274;24235;-63
2022/07/29 06:28:33;;;;;;;6.80;0.80;;;;;;;18.47;58.73;100529.84;105886;1271;22536;-64
2022/07/29 06:31:05;;;;;;;9.00;0.80;;;;;;;18.64;58.59;100529.14;105725;1274;22645;-63
2022/07/29 06:33:37;;;;;;;3.90;0.80;;;;;;;18.76;57.86;100528.82;105677;1274;25441;-63
2022/07/29 06:36:10;;;;;;;5.40;0.80;;;;;;;18.91;57.62;100528.98;105670;1272;22574;-64
2022/07/29 06:38:41;;;;;;;7.00;1.00;;;;;;;19.05;57.30;100531.76;105667;1271;22623;-63
2022/07/29 06:41:15;;;;;;;12.60;1.20;;;;;;;19.15;56.72;100535.29;105647;1272;22549;-63
2022/07/29 06:43:48;;;;;;;3.80;0.70;;;;;;;19.27;56.44;100536.27;105666;1273;22534;-63
2022/07/29 06:46:20;;;;;;;4.70;0.70;;;;;;;19.41;56.25;100535.28;105750;1271;25486;-63
2022/07/29 06:48:53;;;;;;;5.00;0.70;;;;;;;19.53;55.81;100537.80;105818;1274;25430;-63
2022/07/29 06:51:24;;;;;;;7.50;1.00;;;;;;;19.63;55.35;100539.89;106180;1274;25557;-63
2022/07/29 06:53:57;;;;;;;5.00;0.60;;;;;;;19.72;55.14;100543.98;105857;1274;25317;-63
2022/07/29 06:56:29;;;;;;;6.60;0.70;;;;;;;19.82;55.00;100539.62;105788;1273;24244;-63
2022/07/29 06:59:00;;;;;;;5.20;0.80;;;;;;;19.93;54.52;100539.05;105886;1273;24363;-63
2022/07/29 07:01:32;;;;;;;6.80;0.60;;;;;;;20.05;54.60;100532.79;105910;1274;25532;-62
2022/07/29 07:04:04;;;;;;;3.60;0.60;;;;;;;20.21;54.54;100537.83;105703;1274;22612;-64
2022/07/29 07:06:35;;;;;;;3.90;0.70;;;;;;;20.37;54.45;100538.98;105913;1273;22745;-64
2022/07/29 07:09:07;;;;;;;5.00;0.60;;;;;;;20.50;53.97;100544.70;106109;1271;22573;-64
2022/07/29 07:11:38;;;;;;;6.70;0.70;;;;;;;20.58;53.44;100544.97;105826;1271;24214;-63
2022/07/29 07:14:10;;;;;;;7.40;0.60;;;;;;;20.66;52.84;100537.61;105857;1274;22693;-63
2022/07/29 07:16:41;;;;;;;3.30;0.60;;;;;;;20.73;52.77;100531.24;105808;1274;25315;-64
2022/07/29 07:19:13;;;;;;;6.90;0.80;;;;;;;20.80;52.30;100531.75;105811;1274;24270;-63
2022/07/29 07:21:44;;;;;;;4.50;0.90;;;;;;;20.87;52.13;100530.06;105817;1274;24420;-64
2022/07/29 07:24:16;;;;;;;10.80;1.00;;;;;;;20.93;51.89;100528.95;105780;1274;22544;-65
2022/07/29 07:26:48;;;;;;;5.90;0.70;;;;;;;21.01;51.63;100522.70;105707;1272;22634;-64
2022/07/29 07:29:19;;;;;;;5.50;0.60;;;;;;;21.11;51.64;100527.77;105851;1271;25701;-64
2022/07/29 07:31:51;;;;;;;7.50;0.70;;;;;;;21.25;51.45;100528.43;105675;1271;25382;-63
2022/07/29 07:34:22;;;;;;;6.20;0.80;;;;;;;21.43;51.29;100522.85;105715;1274;22761;-63
2022/07/29 07:36:54;;;;;;;3.20;0.60;;;;;;;21.57;51.11;100522.14;105887;1274;25415;-63
2022/07/29 07:39:27;;;;;;;5.10;0.60;;;;;;;21.67;50.39;100514.95;105785;1274;25274;-62
2022/07/29 07:41:59;;;;;;;7.90;0.70;;;;;;;21.73;50.03;100517.02;105940;1274;25331;-66
2022/07/29 07:44:35;;;;;;;3.90;0.70;;;;;;;21.81;49.79;100520.91;105840;1274;25386;-64
2022/07/29 07:47:08;;;;;;;3.60;0.60;;;;;;;21.84;49.38;100520.44;105744;1274;25242;-64
2022/07/29 07:49:40;;;;;;;5.50;0.50;;;;;;;21.87;49.31;100519.45;105718;1274;24700;-63
2022/07/29 07:52:12;;;;;;;6.30;0.80;;;;;;;21.91;49.05;100516.23;105747;1271;22565;-64
2022/07/29 07:54:45;;;;;;;4.80;0.60;;;;;;;21.96;48.82;100515.98;105989;1274;22624;-64
2022/07/29 07:57:17;;;;;;;8.60;0.90;;;;;;;22.01;48.75;100515.92;105754;1274;22594;-66
2022/07/29 07:59:49;;;;;;;4.90;0.90;;;;;;;22.09;48.65;100512.27;105759;1274;22879;-65
2022/07/29 08:02:21;;;;;;;5.50;0.80;;;;;;;22.19;48.62;100514.35;105690;1274;22709;-63
2022/07/29 08:04:55;;;;;;;4.40;0.70;;;;;;;22.29;48.32;100512.65;105777;1274;24277;-64
2022/07/29 08:07:27;;;;;;;3.50;0.70;;;;;;;22.37;48.24;100512.09;105900;1274;25430;-64
2022/07/29 08:09:58;;;;;;;5.20;0.90;;;;;;;22.44;47.76;100514.39;105782;1274;25560;-66
2022/07/29 08:12:30;;;;;;;4.60;0.70;;;;;;;22.52;47.85;100515.02;105907;1272;25434;-64
2022/07/29 08:15:02;;;;;;;5.70;0.70;;;;;;;22.60;47.79;100516.02;105827;1273;23366;-64
2022/07/29 08:17:33;;;;;;;3.40;0.60;;;;;;;22.70;47.75;100512.46;105846;1274;25413;-64
2022/07/29 08:20:06;;;;;;;5.40;0.80;;;;;;;22.79;47.73;100513.54;105720;1274;24230;-63
2022/07/29 08:22:37;;;;;;;10.80;0.80;;;;;;;22.87;47.31;100515.60;105637;1272;22693;-64
2022/07/29 08:25:11;;;;;;;6.00;0.80;;;;;;;22.93;47.24;100517.23;105734;1274;25535;-65
2022/07/29 08:27:43;;;;;;;8.30;0.80;;;;;;;23.01;46.86;100516.64;105881;1274;24378;-64
2022/07/29 08:30:15;;;;;;;7.40;0.70;;;;;;;23.09;47.00;100511.19;105644;1271;22689;-64
2022/07/29 08:32:48;;;;;;;9.60;0.70;;;;;;;23.20;46.68;100507.73;105607;1271;25490;-63
2022/07/29 08:35:20;;;;;;;5.40;0.70;;;;;;;23.27;46.48;100504.46;105630;1274;22701;-63
2022/07/29 08:37:52;;;;;;;5.90;0.80;;;;;;;23.33;46.32;100505.92;105824;1273;24248;-64
2022/07/29 08:40:24;;;;;;;5.80;0.70;;;;;;;23.38;46.05;100503.94;105687;1273;23114;-65
2022/07/29 08:42:56;;;;;;;5.20;0.80;;;;;;;23.45;45.96;100507.70;105801;1273;22649;-64
2022/07/29 08:45:29;;;;;;;2.90;0.70;;;;;;;23.51;45.81;100508.41;105634;1273;22569;-64
2022/07/29 08:48:01;;;;;;;5.50;0.70;;;;;;;23.57;45.54;100510.83;105637;1274;23969;-64
2022/07/29 08:50:36;;;;;;;7.10;1.00;;;;;;;23.61;45.43;100509.71;105668;1274;22570;-63
2022/07/29 08:53:08;;;;;;;8.40;0.80;;;;;;;23.68;45.29;100514.76;105670;1271;22530;-64
2022/07/29 08:55:43;;;;;;;4.50;0.80;;;;;;;23.72;45.24;100509.90;105807;1274;24462;-65
2022/07/29 08:58:16;;;;;;;6.00;1.10;;;;;;;23.76;45.23;100507.15;105871;1273;22544;-64
2022/07/29 09:00:51;;;;;;;5.30;1.50;;;;;;;23.81;45.10;100502.95;105845;1273;25536;-65
2022/07/29 09:03:24;;;;;;;6.30;0.80;;;;;;;23.87;45.09;100501.34;105734;1273;22532;-64
2022/07/29 09:05:56;;;;;;;5.10;0.60;;;;;;;23.96;45.26;100496.44;105726;1273;22554;-65
2022/07/29 09:08:28;;;;;;;4.80;1.10;;;;;;;24.06;44.95;100499.45;105690;1272;25369;-64
2022/07/29 09:11:01;;;;;;;4.60;0.60;;;;;;;24.15;44.59;100493.17;105822;1273;22841;-64
2022/07/29 09:13:33;;;;;;;3.20;0.60;;;;;;;24.23;44.82;100492.49;105848;1273;22529;-65
2022/07/29 09:16:05;;;;;;;6.00;1.20;;;;;;;24.33;44.66;100492.16;105971;1273;24278;-65
2022/07/29 09:18:41;;;;;;;5.80;0.90;;;;;;;24.46;44.33;100495.10;105685;1273;22756;-64
2022/07/29 09:24:08;;;;;;;5.20;0.80;;;;;;;24.63;43.78;100493.48;106056;1273;25370;-66
2022/07/29 09:26:41;;;;;;;5.80;0.70;;;;;;;24.68;43.89;100492.55;105891;1273;22566;-65
2022/07/29 09:29:14;;;;;;;5.30;0.60;;;;;;;24.75;43.71;100495.77;105796;1273;24309;-65
2022/07/29 09:31:48;;;;;;;5.00;0.60;;;;;;;24.81;43.35;100491.50;106151;1273;24231;-64
2022/07/29 09:34:23;;;;;;;2.40;0.90;;;;;;;24.86;43.28;100485.63;106071;1273;22532;-64
2022/07/29 09:36:55;;;;;;;2.40;0.60;;;;;;;24.95;42.96;100482.99;106140;1273;22556;-64
2022/07/29 09:39:35;;;;;;;4.50;0.70;;;;;;;24.98;42.74;100482.84;106109;1273;24390;-65
2022/07/29 09:42:09;;;;;;;3.70;0.80;;;;;;;25.04;42.72;100477.75;106027;1273;25377;-65
2022/07/29 09:44:48;;;;;;;6.80;0.70;;;;;;;25.09;42.67;100478.43;106163;1273;22717;-64
2022/07/29 09:47:21;;;;;;;2.70;0.80;;;;;;;25.13;42.73;100474.95;106142;1273;22772;-64
2022/07/29 09:49:59;;;;;;;7.70;1.10;;;;;;;25.17;42.43;100476.05;106118;1273;25856;-66
2022/07/29 09:52:31;;;;;;;4.80;1.00;;;;;;;25.21;42.41;100473.74;106051;1273;25370;-64
2022/07/29 09:55:10;;;;;;;9.40;1.10;;;;;;;25.27;42.20;100474.84;106164;1274;22573;-65
2022/07/29 09:57:41;;;;;;;12.50;1.20;;;;;;;25.29;42.21;100472.46;106057;1273;25419;-66
2022/07/29 10:00:17;;;;;;;6.70;0.90;;;;;;;25.32;42.42;100474.47;105775;1273;22541;-65
2022/07/29 10:02:49;;;;;;;3.40;0.60;;;;;;;25.35;42.07;100473.13;105959;1273;22619;-64
2022/07/29 10:05:23;;;;;;;5.00;0.90;;;;;;;25.38;41.99;100468.58;106166;1273;25055;-66
2022/07/29 10:07:56;;;;;;;9.80;0.90;;;;;;;25.40;41.80;100469.50;105905;1273;23212;-65
2022/07/29 10:10:30;;;;;;;3.80;0.60;;;;;;;25.40;41.56;100465.19;105848;1273;22718;-64
2022/07/29 10:13:05;;;;;;;4.20;0.70;;;;;;;25.40;41.66;100464.77;105940;1273;22555;-65
2022/07/29 10:15:40;;;;;;;4.30;0.70;;;;;;;25.43;41.58;100464.36;106596;1261;22658;-51
2022/07/29 10:18:13;;;;;;;5.30;0.90;;;;;;;25.47;41.67;100462.01;105941;1271;23196;-53
2022/07/29 10:20:44;;;;;;;5.50;0.80;;;;;;;25.50;41.46;100463.53;106014;1271;22792;-50
2022/07/29 10:23:16;;;;;;;8.40;0.90;;;;;;;25.50;41.28;100457.96;105950;1271;24218;-50
2022/07/29 10:25:48;;;;;;;7.00;1.00;;;;;;;25.48;41.07;100459.23;105891;1271;22619;-53
2022/07/29 10:28:19;;;;;;;3.60;0.70;;;;;;;25.47;41.03;100460.52;105846;1271;22754;-52
2022/07/29 10:30:53;;;;;;;3.10;0.70;;;;;;;25.46;41.14;100456.89;105908;1271;22550;-51
2022/07/29 10:33:44;;;;;;;5.50;0.90;;;;;;;25.46;41.18;100453.64;105922;1271;22817;-51
2022/07/29 10:36:28;;;;;;;9.60;1.50;;;;;;;25.50;41.16;100450.95;105849;1271;22552;-53
2022/07/29 10:39:06;;;;;;;5.10;0.70;;;;;;;25.54;41.01;100453.71;105821;1270;24374;-52
2022/07/29 10:42:07;;;;;;;3.90;0.70;;;;;;;25.55;40.93;100457.71;105852;1271;22558;-52
2022/07/29 10:44:40;;;;;;;3.70;0.90;;;;;;;25.57;40.55;100458.50;105833;1270;22624;-52
2022/07/29 10:47:22;;;;;;;8.20;0.90;;;;;;;25.58;40.66;100455.30;106048;1270;22564;-52
2022/07/29 10:53:53;;;;;;;4.30;0.90;;;;;;;25.61;40.58;100450.41;105814;1271;25324;-53
2022/07/29 10:56:43;;;;;;;8.80;0.90;;;;;;;25.68;40.94;100454.30;105794;1270;22708;-53
2022/07/29 10:59:32;;;;;;;9.90;1.00;;;;;;;25.74;40.53;100453.52;105750;1270;22688;-55
2022/07/29 11:02:44;;;;;;;6.90;0.90;;;;;;;25.76;40.36;100455.15;105895;1270;22554;-53
2022/07/29 11:05:58;;;;;;;3.90;0.90;;;;;;;25.78;40.50;100451.42;105826;1270;25476;-52
2022/07/29 11:09:06;;;;;;;6.80;0.90;;;;;;;25.82;40.25;100450.40;105761;1270;25298;-50
2022/07/29 11:11:41;;;;;;;8.80;2.00;;;;;;;25.90;40.38;100454.20;105780;1270;25248;-51
2022/07/29 11:14:13;;;;;;;7.30;1.00;;;;;;;25.99;40.43;100450.33;105983;1271;24431;-54
2022/07/29 11:17:06;;;;;;;7.50;0.80;;;;;;;26.05;40.03;100444.55;105899;1271;23182;-50
2022/07/29 11:19:41;;;;;;;5.20;0.90;;;;;;;26.06;39.67;100447.40;105974;1270;24539;-52
2022/07/29 11:22:33;;;;;;;8.70;0.70;;;;;;;26.05;39.74;100441.86;105967;1271;25413;-51
2022/07/29 11:25:17;;;;;;;4.00;0.80;;;;;;;26.15;39.84;100442.17;106050;1271;26934;-49
2022/07/29 11:27:50;;;;;;;8.20;1.10;;;;;;;26.24;39.55;100441.68;105999;1271;22544;-52
2022/07/29 11:30:22;;;;;;;2.70;0.80;;;;;;;26.33;39.61;100438.16;105940;1271;25337;-51
2022/07/29 11:32:53;;;;;;;5.10;0.80;;;;;;;26.43;39.32;100435.14;105822;1271;24373;-50
2022/07/29 11:35:25;;;;;;;3.20;0.60;;;;;;;26.47;39.15;100438.27;106165;1271;23052;-51
2022/07/29 11:38:29;;;;;;;3.20;0.90;;;;;;;26.57;39.34;100439.02;106447;1271;22540;-52
2022/07/29 11:41:35;;;;;;;4.30;0.80;;;;;;;26.68;38.72;100440.90;106009;1270;24231;-51
2022/07/29 11:44:07;;;;;;;7.40;1.00;;;;;;;26.69;38.92;100437.52;105432;1276;22754;-51
2022/07/29 11:46:49;;;;;;;5.60;0.90;;;;;;;26.73;38.96;100435.58;105572;1277;25468;-50
2022/07/29 11:49:26;;;;;;;6.60;0.80;;;;;;;26.82;38.94;100441.36;105494;1276;24008;-51
2022/07/29 11:52:00;;;;;;;4.50;0.80;;;;;;;26.86;38.51;100442.70;105780;1274;22579;-52
2022/07/29 11:54:34;;;;;;;7.10;1.00;;;;;;;26.85;38.41;100443.20;105732;1274;25660;-52
2022/07/29 11:57:09;;;;;;;8.50;1.00;;;;;;;26.85;38.51;100446.38;105576;1274;26694;-52
2022/07/29 11:59:44;;;;;;;8.30;1.10;;;;;;;26.90;38.84;100441.80;106210;1276;22551;-50